Gonaives, Haiti
Current Conditions -  °F | °C
As of 11:00 AM on Monday 22 Dec 2014 (Local Time) from MDST Reporting Station
Few Clouds Few Clouds  
Wind Chill: 81°   Ceiling: Unl
Heat Index: 83°   Visibility: 6mi
Dew Point: 66°   Wind: 17mph
Humidity: 61%   Direction: 110°ESE
Pressure: 30.03"   Gusts: NA
Location:  19.45°N, 72.69°W
Report Text: MDST 221600Z 11015KT 9999 FEW025 27/19 Q1017 NOSIG
Loading
Personal Weather Stations






























Interactive Weather Map New forecast layout! Learn more

10-Day Weather Forecast

Advertisements
Track Severe Weather on mobile